Time;durP1;ratioP1;P1;durP2;ratioP2;P2;SDS_P1;SDS_P2;PMS_P1;PMS_P2;Temp;Humidity;BMP_temperature;BMP_pressure;BME280_temperature;BME280_humidity;BME280_pressure;Samples;Min_cycle;Max_cycle;Signal;HPM_P1;HPM_P2
2021/03/21 00:01:10;;;;;;;64.67;22.02;;;;;;;-5.52;60.84;99307.60;2183450;80;21296;-73
2021/03/21 00:04:13;;;;;;;66.77;20.75;;;;;;;-5.52;61.13;99310.16;2193701;79;21291;-73
2021/03/21 00:07:15;;;;;;;64.05;19.73;;;;;;;-5.54;62.03;99306.31;2188451;80;21755;-73
2021/03/21 00:10:17;;;;;;;59.15;18.73;;;;;;;-5.55;61.42;99297.34;2195408;80;21763;-73
2021/03/21 00:13:19;;;;;;;62.65;19.92;;;;;;;-5.57;61.40;99293.06;2193610;80;21334;-73
2021/03/21 00:16:21;;;;;;;57.17;17.95;;;;;;;-5.55;62.01;99286.69;2206126;80;21332;-73
2021/03/21 00:19:23;;;;;;;45.50;15.68;;;;;;;-5.56;61.88;99281.12;2203918;80;21311;-72
2021/03/21 00:22:25;;;;;;;58.60;18.75;;;;;;;-5.58;62.01;99278.56;2192829;79;21300;-73
2021/03/21 00:25:27;;;;;;;59.53;19.82;;;;;;;-5.57;62.22;99269.22;2192322;80;21292;-73
2021/03/21 00:28:29;;;;;;;61.18;20.40;;;;;;;-5.62;62.39;99266.58;2197021;80;21288;-74
2021/03/21 00:31:31;;;;;;;60.10;19.32;;;;;;;-5.64;62.87;99266.15;2188227;80;21300;-73
2021/03/21 00:34:33;;;;;;;61.15;19.65;;;;;;;-5.67;63.36;99265.69;2193033;80;21291;-73
2021/03/21 00:37:38;;;;;;;65.40;20.55;;;;;;;-5.70;62.92;99255.84;2178195;81;21320;-72
2021/03/21 00:40:39;;;;;;;68.37;22.60;;;;;;;-5.72;63.17;99249.86;2186267;80;21716;-73
2021/03/21 00:43:41;;;;;;;78.60;25.62;;;;;;;-5.75;63.87;99251.55;2196655;80;21300;-73
2021/03/21 00:46:43;;;;;;;85.40;27.73;;;;;;;-5.78;64.12;99237.88;2205891;80;21716;-74
2021/03/21 00:49:45;;;;;;;60.78;21.33;;;;;;;-5.79;64.38;99241.26;2199970;80;21288;-74
2021/03/21 00:52:47;;;;;;;55.38;17.48;;;;;;;-5.79;64.63;99226.80;2199076;79;21304;-74
2021/03/21 00:55:49;;;;;;;54.40;17.73;;;;;;;-5.74;64.34;99225.14;2200084;80;21300;-73
2021/03/21 00:58:51;;;;;;;;;;;;;;;-5.72;64.48;99216.64;2195929;79;21284;-73
2021/03/21 01:01:53;;;;;;;49.90;16.30;;;;;;;-5.70;64.13;99213.27;2196603;80;20423;-73
2021/03/21 01:04:55;;;;;;;53.50;17.15;;;;;;;-5.68;64.08;99202.63;2208841;80;21731;-73
2021/03/21 01:07:57;;;;;;;52.05;16.35;;;;;;;-5.69;64.28;99198.34;2194861;79;21279;-74
2021/03/21 01:10:59;;;;;;;50.03;17.42;;;;;;;-5.70;64.41;99193.22;2197375;80;21303;-73
2021/03/21 01:14:01;;;;;;;51.35;17.30;;;;;;;-5.68;64.50;99185.17;2190569;80;21300;-74
2021/03/21 01:17:03;;;;;;;51.10;16.73;;;;;;;-5.67;64.19;99173.67;2194235;80;21292;-73
2021/03/21 01:20:05;;;;;;;50.55;16.35;;;;;;;-5.67;64.79;99172.40;2194054;79;21291;-73
2021/03/21 01:23:07;;;;;;;51.50;16.93;;;;;;;-5.67;65.87;99160.90;2186847;80;21263;-74
2021/03/21 01:26:09;;;;;;;51.30;17.00;;;;;;;-5.67;65.17;99154.94;2193904;81;21272;-74
2021/03/21 01:29:12;;;;;;;51.88;17.75;;;;;;;-5.65;65.30;99150.69;2199483;80;21727;-73
2021/03/21 01:32:14;;;;;;;53.30;16.70;;;;;;;-5.64;65.12;99139.20;2189326;80;21689;-73
2021/03/21 01:35:16;;;;;;;42.75;13.75;;;;;;;-5.64;65.04;99140.48;2194615;80;21327;-73
2021/03/21 01:38:18;;;;;;;49.98;16.15;;;;;;;-5.62;65.08;99136.66;2198607;81;21740;-74
2021/03/21 01:41:20;;;;;;;56.15;16.75;;;;;;;-5.64;66.07;99129.41;2183834;80;21280;-74
2021/03/21 01:44:22;;;;;;;45.98;16.35;;;;;;;-5.64;65.50;99114.92;2201785;80;21716;-76
2021/03/21 01:47:24;;;;;;;48.87;16.25;;;;;;;-5.63;65.79;99116.64;2196123;80;21732;-74
2021/03/21 01:50:27;;;;;;;46.75;15.45;;;;;;;-5.61;65.70;99117.50;2190217;80;21719;-74
2021/03/21 01:53:29;;;;;;;48.05;15.53;;;;;;;-5.63;66.29;99112.80;2198044;80;21716;-74
2021/03/21 01:56:31;;;;;;;46.18;17.23;;;;;;;-5.64;66.11;99100.02;2193607;80;22714;-75
2021/03/21 01:59:35;;;;;;;49.27;16.57;;;;;;;-5.66;65.52;99094.02;2206147;80;21280;-73
2021/03/21 02:02:37;;;;;;;43.85;15.18;;;;;;;-5.64;65.76;99095.75;2191494;79;21269;-75
2021/03/21 02:05:39;;;;;;;46.13;14.75;;;;;;;-5.64;65.92;99087.23;2204107;79;21293;-73
2021/03/21 02:08:41;;;;;;;40.12;15.30;;;;;;;-5.65;65.72;99082.95;2183734;80;21751;-73
2021/03/21 02:11:43;;;;;;;45.58;15.28;;;;;;;-5.69;66.03;99077.38;2201134;80;21293;-74
2021/03/21 02:14:45;;;;;;;49.30;15.30;;;;;;;-5.67;65.89;99074.00;2187691;80;21296;-74
2021/03/21 02:17:47;;;;;;;37.45;13.55;;;;;;;-5.67;65.85;99069.33;2191319;80;21308;-73
2021/03/21 02:20:50;;;;;;;42.98;15.15;;;;;;;-5.62;66.21;99057.42;2183806;80;21737;-73
2021/03/21 02:23:52;;;;;;;45.38;15.08;;;;;;;-5.59;65.73;99055.77;2191600;80;21700;-73
2021/03/21 02:26:54;;;;;;;46.15;15.43;;;;;;;-5.59;65.90;99053.20;2191577;80;21312;-73
2021/03/21 02:29:56;;;;;;;45.85;15.48;;;;;;;-5.59;65.79;99039.55;2201557;80;21301;-72
2021/03/21 02:32:58;;;;;;;46.10;16.30;;;;;;;-5.60;65.92;99039.14;2201543;80;21295;-73
2021/03/21 02:36:00;;;;;;;46.48;15.53;;;;;;;-5.62;66.12;99024.20;2200053;80;21732;-73
2021/03/21 02:39:02;;;;;;;47.20;15.20;;;;;;;-5.61;66.26;99017.81;2197176;80;21202;-73
2021/03/21 02:42:04;;;;;;;37.13;12.13;;;;;;;-5.63;66.63;99010.57;2187662;80;21344;-73
2021/03/21 02:45:06;;;;;;;45.08;13.90;;;;;;;-5.61;66.62;98999.92;2192439;80;21292;-73
2021/03/21 02:48:08;;;;;;;38.90;13.85;;;;;;;-5.59;67.23;98997.38;2201173;81;21154;-73
2021/03/21 02:51:10;;;;;;;49.27;15.50;;;;;;;-5.58;67.67;98996.54;2196640;80;21333;-73
2021/03/21 02:54:12;;;;;;;42.70;15.53;;;;;;;-5.57;67.35;98986.32;2203689;80;21280;-73
2021/03/21 02:57:15;;;;;;;44.58;14.58;;;;;;;-5.58;66.97;98990.98;2209083;80;21284;-73
2021/03/21 03:00:17;;;;;;;43.10;15.45;;;;;;;-5.60;67.58;98980.34;2192567;80;21292;-73
2021/03/21 03:03:19;;;;;;;45.85;15.35;;;;;;;-5.58;67.61;98973.09;2190637;80;21731;-72
2021/03/21 03:06:21;;;;;;;43.30;15.50;;;;;;;-5.55;67.06;98970.15;2194353;80;21288;-72
2021/03/21 03:09:24;;;;;;;46.28;14.90;;;;;;;-5.57;67.24;98959.48;2185927;81;21304;-73
2021/03/21 03:12:26;;;;;;;45.50;14.93;;;;;;;-5.56;67.44;98950.09;2194016;80;21308;-72
2021/03/21 03:15:28;;;;;;;42.43;14.58;;;;;;;-5.55;67.34;98952.25;2191787;81;21336;-73
2021/03/21 03:18:30;;;;;;;40.28;13.32;;;;;;;-5.57;66.94;98945.42;2187951;80;21308;-72
2021/03/21 03:21:32;;;;;;;43.75;14.80;;;;;;;-5.57;67.49;98941.59;2187414;80;21297;-73
2021/03/21 03:24:34;;;;;;;47.20;15.53;;;;;;;-5.58;67.62;98924.53;2199165;81;21791;-73
2021/03/21 03:27:36;;;;;;;44.77;15.38;;;;;;;-5.58;67.62;98924.53;2185206;80;21276;-73
2021/03/21 03:30:38;;;;;;;49.27;15.35;;;;;;;-5.54;66.89;98919.47;2202588;80;21275;-73
2021/03/21 03:33:40;;;;;;;43.80;15.43;;;;;;;-5.54;67.00;98916.91;2189240;80;21293;-73
2021/03/21 03:36:42;;;;;;;38.40;12.47;;;;;;;-5.56;66.78;98915.59;2192386;81;21359;-73
2021/03/21 03:39:44;;;;;;;49.83;16.70;;;;;;;-5.59;66.77;98904.95;2192638;80;21304;-73
2021/03/21 03:42:46;;;;;;;46.50;16.02;;;;;;;-5.57;66.78;98898.57;2188980;80;21177;-73
2021/03/21 03:45:49;;;;;;;44.38;15.08;;;;;;;-5.54;66.51;98893.91;2193166;80;21300;-73
2021/03/21 03:48:51;;;;;;;45.15;16.62;;;;;;;-5.56;66.65;98890.03;2197209;80;21723;-73
2021/03/21 03:51:53;;;;;;;51.98;16.40;;;;;;;-5.54;66.24;98897.73;2204781;81;21312;-73
2021/03/21 03:54:55;;;;;;;50.78;17.35;;;;;;;-5.53;66.12;98884.09;2197611;80;21728;-73
2021/03/21 03:57:57;;;;;;;62.43;18.10;;;;;;;-5.50;65.77;98884.97;2195078;80;21304;-74
2021/03/21 04:00:59;;;;;;;52.05;17.35;;;;;;;-5.46;65.70;98879.44;2191515;79;21169;-73
2021/03/21 04:04:01;;;;;;;49.45;17.57;;;;;;;-5.43;65.70;98867.94;2189545;80;21312;-73
2021/03/21 04:07:03;;;;;;;50.73;16.73;;;;;;;-5.43;65.64;98853.47;2193653;80;21307;-73
2021/03/21 04:10:05;;;;;;;54.38;17.90;;;;;;;-5.37;65.58;98856.48;2194043;80;21229;-73
2021/03/21 04:13:07;;;;;;;58.13;19.62;;;;;;;-5.32;65.68;98853.49;2208818;80;21130;-73
2021/03/21 04:16:09;;;;;;;53.25;18.73;;;;;;;-5.24;65.52;98844.16;2168662;80;21716;-73
2021/03/21 04:19:11;;;;;;;62.13;20.15;;;;;;;-5.18;65.33;98829.25;2209690;80;21705;-73
2021/03/21 04:22:13;;;;;;;59.98;19.75;;;;;;;-5.07;65.23;98821.58;2192161;80;21745;-73
2021/03/21 04:25:15;;;;;;;54.80;21.05;;;;;;;-4.99;65.58;98831.41;2190275;80;21292;-73
2021/03/21 04:28:17;;;;;;;58.48;20.88;;;;;;;-4.93;65.34;98828.88;2191335;80;21288;-73
2021/03/21 04:31:19;;;;;;;65.70;23.40;;;;;;;-4.87;65.13;98818.65;2196529;80;21296;-73
2021/03/21 04:34:21;;;;;;;58.42;21.68;;;;;;;-4.83;65.04;98816.09;2191800;79;21296;-73
2021/03/21 04:37:23;;;;;;;54.33;19.07;;;;;;;-4.75;65.15;98804.16;2193401;79;21271;-73
2021/03/21 04:40:26;;;;;;;65.62;22.27;;;;;;;-4.70;64.80;98793.47;2207715;81;21300;-73
2021/03/21 04:43:27;;;;;;;68.78;21.33;;;;;;;-4.63;64.38;98788.78;2200921;80;21344;-73
2021/03/21 04:46:29;;;;;;;63.50;22.20;;;;;;;-4.57;64.48;98784.09;2197847;80;21284;-72
2021/03/21 04:49:31;;;;;;;59.40;21.33;;;;;;;-4.53;64.50;98786.64;2192871;80;21288;-73
2021/03/21 04:52:33;;;;;;;57.35;19.10;;;;;;;-4.47;64.77;98775.54;2180362;80;21307;-73
2021/03/21 04:55:35;;;;;;;58.70;22.42;;;;;;;-4.39;64.40;98777.67;2182609;80;21277;-73
2021/03/21 04:58:37;;;;;;;68.05;22.02;;;;;;;-4.33;64.20;98773.41;2178537;80;21727;-73
2021/03/21 05:01:39;;;;;;;63.33;22.00;;;;;;;-4.31;63.92;98767.43;2207291;79;21750;-73
2021/03/21 05:04:41;;;;;;;66.30;21.07;;;;;;;-4.27;63.69;98767.82;2193881;79;21755;-72
2021/03/21 05:07:43;;;;;;;67.30;23.70;;;;;;;-4.20;63.88;98769.52;2185870;80;21716;-73
2021/03/21 05:10:46;;;;;;;68.95;23.67;;;;;;;-4.15;63.54;98764.41;2188391;80;21307;-73
2021/03/21 05:13:48;;;;;;;59.27;21.62;;;;;;;-4.10;63.65;98761.83;2186920;80;21289;-73
2021/03/21 05:16:50;;;;;;;53.92;18.23;;;;;;;-4.07;63.55;98759.25;2188640;80;21430;-72
2021/03/21 05:19:52;;;;;;;65.45;23.67;;;;;;;-4.04;63.18;98760.11;2191224;80;21315;-73
2021/03/21 05:22:54;;;;;;;;;;;;;;;-3.97;63.13;98753.67;2193308;80;21628;-73
2021/03/21 05:25:56;;;;;;;63.87;23.33;;;;;;;-3.90;62.94;98749.78;2197054;80;20230;-73
2021/03/21 05:28:58;;;;;;;65.80;25.32;;;;;;;-3.87;63.02;98741.23;2199965;81;21292;-72
2021/03/21 05:32:00;;;;;;;74.45;25.37;;;;;;;-3.81;63.00;98741.64;2191357;81;21324;-73
2021/03/21 05:35:02;;;;;;;66.90;24.27;;;;;;;-3.80;63.19;98745.48;2197095;81;21284;-73
2021/03/21 05:38:04;;;;;;;62.88;22.87;;;;;;;-3.74;62.42;98739.03;2204361;79;21312;-73
2021/03/21 05:41:06;;;;;;;65.55;22.87;;;;;;;-3.68;62.43;98723.64;2184779;80;21272;-73
2021/03/21 05:44:08;;;;;;;66.35;23.05;;;;;;;-3.63;62.29;98718.89;2191664;80;21288;-73
2021/03/21 05:47:10;;;;;;;64.62;22.98;;;;;;;-3.54;62.17;98720.14;2194488;79;21755;-73
2021/03/21 05:50:12;;;;;;;60.08;21.33;;;;;;;-3.45;61.64;98707.69;2194627;79;21732;-73
2021/03/21 05:53:14;;;;;;;60.58;20.70;;;;;;;-3.37;62.09;98707.22;2197997;80;21165;-73
2021/03/21 05:56:16;;;;;;;51.60;18.73;;;;;;;-3.32;61.46;98701.20;2186658;80;21402;-73
2021/03/21 05:59:18;;;;;;;57.48;21.02;;;;;;;-3.27;61.21;98688.33;2181179;80;21303;-72
2021/03/21 06:02:20;;;;;;;55.60;21.33;;;;;;;-3.23;61.54;98685.30;2189234;80;21304;-73
2021/03/21 06:05:22;;;;;;;55.73;19.60;;;;;;;-3.17;61.72;98686.11;2209105;80;21724;-73
2021/03/21 06:08:24;;;;;;;54.40;20.57;;;;;;;-3.12;60.93;98678.81;2196071;80;21304;-73
2021/03/21 06:11:26;;;;;;;49.60;19.07;;;;;;;-3.00;60.86;98672.31;2199926;81;21811;-73
2021/03/21 06:14:28;;;;;;;51.20;18.80;;;;;;;-2.90;60.90;98667.92;2194396;80;21161;-73
2021/03/21 06:17:30;;;;;;;48.78;16.75;;;;;;;-2.80;60.78;98670.84;2191246;80;21285;-73
2021/03/21 06:20:32;;;;;;;50.23;16.85;;;;;;;-2.67;60.38;98664.72;2192472;80;21284;-73
2021/03/21 06:23:34;;;;;;;48.68;18.42;;;;;;;-2.57;59.65;98661.63;2198346;80;21311;-73
2021/03/21 06:26:37;;;;;;;40.60;15.48;;;;;;;-2.49;60.36;98662.37;2201218;79;21308;-73
2021/03/21 06:29:39;;;;;;;46.42;15.65;;;;;;;-2.37;59.54;98652.41;2196109;80;21272;-73
2021/03/21 06:32:41;;;;;;;49.48;17.35;;;;;;;-2.22;59.17;98655.67;2201886;80;21260;-73
2021/03/21 06:35:43;;;;;;;47.35;18.10;;;;;;;-2.12;59.05;98642.67;2192492;80;21609;-73
2021/03/21 06:38:45;;;;;;;45.63;18.42;;;;;;;-2.00;59.09;98642.94;2196311;80;21288;-73
2021/03/21 06:41:47;;;;;;;46.30;17.52;;;;;;;-1.96;58.62;98640.75;2195105;80;21300;-73
2021/03/21 06:44:49;;;;;;;41.15;16.87;;;;;;;-2.01;58.04;98627.54;2203766;79;21727;-73
2021/03/21 06:47:51;;;;;;;45.17;18.32;;;;;;;-1.95;58.26;98628.77;2191837;80;21780;-73
2021/03/21 06:50:53;;;;;;;43.48;16.93;;;;;;;-1.91;58.32;98621.43;2194635;80;21307;-73
2021/03/21 06:53:55;;;;;;;48.95;17.30;;;;;;;-1.82;57.77;98616.14;2185147;80;21315;-73
2021/03/21 06:56:58;;;;;;;43.45;15.98;;;;;;;-1.75;57.94;98620.33;2203731;80;21300;-73
2021/03/21 07:00:00;;;;;;;41.25;15.15;;;;;;;-1.64;57.37;98625.33;2194609;80;21285;-73
2021/03/21 07:03:02;;;;;;;48.08;17.67;;;;;;;-1.61;57.63;98619.27;2194441;80;21295;-73
2021/03/21 07:06:03;;;;;;;41.68;16.30;;;;;;;-1.59;57.76;98620.11;2167453;80;21280;-73
2021/03/21 07:09:06;;;;;;;40.67;15.05;;;;;;;-1.57;57.47;98614.48;2192810;80;21277;-73
2021/03/21 07:12:08;;;;;;;43.73;16.75;;;;;;;-1.50;57.45;98608.38;2168208;81;21296;-73
2021/03/21 07:15:10;;;;;;;37.00;14.68;;;;;;;-1.42;56.97;98595.41;2191822;80;21700;-73
2021/03/21 07:18:12;;;;;;;40.80;15.28;;;;;;;-1.34;57.08;98589.67;2196993;80;21316;-73
2021/03/21 07:21:14;;;;;;;36.53;13.98;;;;;;;-1.27;56.90;98589.98;2203526;80;21348;-73
2021/03/21 07:24:17;;;;;;;38.55;14.70;;;;;;;-1.30;56.91;98582.33;2198371;80;21284;-73
2021/03/21 07:27:20;;;;;;;42.13;15.15;;;;;;;-1.26;55.81;98579.28;2193054;80;21708;-73
2021/03/21 07:30:22;;;;;;;40.70;15.03;;;;;;;-1.23;56.89;98587.78;2197066;80;21296;-73
2021/03/21 07:33:24;;;;;;;37.17;13.72;;;;;;;-1.17;57.17;98581.67;2194435;80;21831;-73
2021/03/21 07:36:26;;;;;;;46.18;15.55;;;;;;;-1.13;55.61;98580.75;2174808;80;21299;-73
2021/03/21 07:39:29;;;;;;;36.50;12.47;;;;;;;-1.08;56.81;98587.97;2191178;80;21705;-73
2021/03/21 07:42:31;;;;;;;49.70;17.02;;;;;;;-0.98;56.44;98577.05;2191176;80;21309;-73
2021/03/21 07:45:33;;;;;;;34.95;13.30;;;;;;;-0.84;56.73;98576.80;2167193;81;21264;-73
2021/03/21 07:48:35;;;;;;;34.08;10.75;;;;;;;-0.68;56.76;98561.89;2192880;80;21752;-73
2021/03/21 07:51:37;;;;;;;42.88;16.17;;;;;;;-0.66;55.59;98556.29;2195124;80;21284;-73
2021/03/21 07:54:39;;;;;;;30.95;9.18;;;;;;;-0.69;55.95;98569.20;2197480;80;21280;-72
2021/03/21 07:57:41;;;;;;;41.80;12.37;;;;;;;-0.76;55.39;98555.61;2180168;80;21296;-72
2021/03/21 08:00:43;;;;;;;53.42;20.15;;;;;;;-0.73;57.01;98546.53;2183523;80;21300;-72
2021/03/21 08:03:46;;;;;;;34.45;12.55;;;;;;;-0.70;56.97;98541.77;2166618;81;21772;-72
2021/03/21 08:06:48;;;;;;;50.35;18.12;;;;;;;-0.56;56.46;98536.31;2170126;80;21321;-72
2021/03/21 08:09:50;;;;;;;37.45;12.82;;;;;;;-0.73;57.26;98521.23;2187100;80;21276;-72
2021/03/21 08:12:52;;;;;;;33.00;10.03;;;;;;;-0.71;57.00;98517.72;2200119;81;21284;-72
2021/03/21 08:15:54;;;;;;;35.35;12.18;;;;;;;-0.78;57.91;98515.30;2191987;80;21744;-72
2021/03/21 08:18:56;;;;;;;31.48;11.25;;;;;;;-0.90;58.61;98518.98;2183921;80;21324;-73
2021/03/21 08:21:58;;;;;;;35.50;12.40;;;;;;;-0.93;59.54;98518.59;2194813;79;21272;-73
2021/03/21 08:25:00;;;;;;;41.60;13.80;;;;;;;-0.83;59.75;98507.68;2200243;81;21371;-73
2021/03/21 08:28:02;;;;;;;32.30;11.60;;;;;;;-0.87;60.51;98510.73;2201181;80;21324;-73
2021/03/21 08:31:04;;;;;;;36.50;13.05;;;;;;;-0.73;59.87;98510.47;2189372;80;21319;-72
2021/03/21 08:34:06;;;;;;;40.12;14.38;;;;;;;-0.74;60.13;98516.50;2194186;80;21291;-73
2021/03/21 08:37:08;;;;;;;30.95;11.80;;;;;;;-0.72;60.41;98510.02;2190442;80;21723;-72
2021/03/21 08:40:10;;;;;;;37.67;13.62;;;;;;;-0.79;60.94;98509.73;2198030;80;21276;-72
2021/03/21 08:43:12;;;;;;;36.00;13.00;;;;;;;-0.73;61.38;98505.33;2193226;80;21304;-73
2021/03/21 08:46:14;;;;;;;37.13;12.20;;;;;;;-0.61;61.41;98493.07;2198234;80;21315;-72
2021/03/21 08:49:16;;;;;;;35.80;12.63;;;;;;;-0.70;61.81;98487.67;2183765;80;21311;-73
2021/03/21 08:52:18;;;;;;;37.45;13.60;;;;;;;-0.74;62.13;98493.31;2191913;80;21316;-73
2021/03/21 08:55:20;;;;;;;33.48;12.13;;;;;;;-0.79;62.99;98480.98;2196957;79;21272;-73
2021/03/21 08:58:23;;;;;;;46.20;19.17;;;;;;;-0.85;63.46;98473.81;2191606;80;21098;-73
2021/03/21 09:01:25;;;;;;;35.25;12.73;;;;;;;-0.89;63.79;98481.61;2198865;80;21279;-72
2021/03/21 09:04:27;;;;;;;42.48;17.70;;;;;;;-0.72;63.35;98468.81;2193548;80;21732;-73
2021/03/21 09:07:29;;;;;;;51.85;21.82;;;;;;;-0.57;63.79;98463.34;2181451;81;21763;-73
2021/03/21 09:10:32;;;;;;;43.17;15.63;;;;;;;-0.40;62.85;98465.55;2195711;80;21728;-72
2021/03/21 09:13:34;;;;;;;33.92;13.25;;;;;;;-0.28;62.84;98464.88;2187404;80;21321;-73
2021/03/21 09:16:36;;;;;;;36.73;13.22;;;;;;;-0.18;62.28;98467.64;2205590;80;21299;-72
2021/03/21 09:19:39;;;;;;;42.23;15.90;;;;;;;-0.09;62.04;98461.42;2206983;79;21153;-72
2021/03/21 09:22:42;;;;;;;38.88;15.45;;;;;;;-0.18;61.25;98465.89;2196006;79;22033;-72
2021/03/21 09:25:44;;;;;;;34.00;13.65;;;;;;;-0.16;61.70;98450.39;2197667;80;21319;-72
2021/03/21 09:28:46;;;;;;;31.25;11.28;;;;;;;-0.21;61.54;98447.92;2198958;80;21727;-72
2021/03/21 09:31:48;;;;;;;31.65;11.93;;;;;;;-0.13;61.67;98454.21;2191043;79;21724;-72
2021/03/21 09:34:50;;;;;;;33.98;12.18;;;;;;;0.05;61.46;98453.36;2214823;80;21170;-72
2021/03/21 09:37:52;;;;;;;34.90;13.40;;;;;;;0.06;61.04;98452.45;2192228;80;21283;-72
2021/03/21 09:40:54;;;;;;;34.18;12.20;;;;;;;0.11;60.45;98441.14;2182903;80;21292;-72
2021/03/21 09:43:56;;;;;;;;;;;;;;;0.14;60.53;98442.80;2194530;80;21137;-72
2021/03/21 09:46:58;;;;;;;34.35;11.60;;;;;;;0.20;60.88;98449.55;2193442;80;20225;-72
2021/03/21 09:50:00;;;;;;;38.33;13.18;;;;;;;0.09;60.59;98448.54;2175602;80;21279;-73
2021/03/21 09:53:03;;;;;;;33.25;12.05;;;;;;;-0.05;61.96;98446.28;2202935;80;21645;-72
2021/03/21 09:56:05;;;;;;;34.75;12.10;;;;;;;0.06;63.23;98439.14;2191836;79;21407;-72
2021/03/21 09:59:07;;;;;;;32.75;11.18;;;;;;;0.08;64.95;98448.13;2204600;80;21280;-72
2021/03/21 10:02:09;;;;;;;33.28;12.58;;;;;;;0.13;64.39;98441.10;2208570;80;21727;-72
2021/03/21 10:05:11;;;;;;;37.67;13.48;;;;;;;-0.07;65.76;98436.43;2179005;80;21281;-72
2021/03/21 10:08:13;;;;;;;32.05;11.48;;;;;;;-0.19;66.74;98416.53;2199879;80;21332;-72
2021/03/21 10:11:15;;;;;;;35.70;12.30;;;;;;;-0.32;67.14;98437.47;2183107;80;21641;-73
2021/03/21 10:14:17;;;;;;;32.23;11.95;;;;;;;-0.44;69.07;98429.13;2198229;80;21573;-72
2021/03/21 10:17:19;;;;;;;35.80;13.85;;;;;;;-0.40;68.93;98428.19;2206775;80;21288;-72
2021/03/21 10:20:21;;;;;;;33.25;11.12;;;;;;;-0.43;68.00;98420.53;2185289;80;21169;-72
2021/03/21 10:23:24;;;;;;;39.23;14.15;;;;;;;-0.50;67.51;98437.43;2199116;80;21327;-72
2021/03/21 10:26:26;;;;;;;36.60;13.72;;;;;;;-0.58;67.68;98427.31;2195257;80;21146;-72
2021/03/21 10:29:28;;;;;;;36.13;14.07;;;;;;;-0.58;67.46;98420.87;2205642;79;21350;-73
2021/03/21 10:32:31;;;;;;;36.68;14.43;;;;;;;-0.65;67.51;98413.70;2194520;79;21754;-72
2021/03/21 10:35:33;;;;;;;43.78;16.15;;;;;;;-0.60;67.59;98424.77;2195344;80;21351;-72
2021/03/21 10:38:35;;;;;;;33.50;11.85;;;;;;;-0.51;67.51;98415.98;2178040;81;21164;-72
2021/03/21 10:41:37;;;;;;;35.83;12.68;;;;;;;-0.44;67.49;98408.52;2199170;80;21327;-72
2021/03/21 10:44:39;;;;;;;37.00;13.80;;;;;;;-0.29;67.18;98415.48;2186300;80;21287;-72
2021/03/21 10:47:41;;;;;;;36.03;14.65;;;;;;;-0.20;66.82;98416.12;2193518;80;21311;-73
2021/03/21 10:50:43;;;;;;;44.25;15.13;;;;;;;-0.17;66.56;98420.36;2193179;80;21780;-72
2021/03/21 10:53:45;;;;;;;37.38;14.10;;;;;;;-0.06;66.97;98411.93;2191467;80;21740;-73
2021/03/21 10:56:47;;;;;;;37.03;13.32;;;;;;;0.07;66.92;98411.61;2183383;80;21292;-72
2021/03/21 10:59:49;;;;;;;37.17;13.53;;;;;;;0.26;65.59;98403.81;2181953;80;21316;-72
2021/03/21 11:02:51;;;;;;;35.75;12.75;;;;;;;0.40;64.99;98398.73;2182758;80;21304;-72
2021/03/21 11:05:53;;;;;;;34.75;11.78;;;;;;;0.29;65.26;98396.44;2192910;80;21740;-73
2021/03/21 11:08:55;;;;;;;33.90;12.68;;;;;;;0.22;65.32;98381.56;2165471;80;21740;-72
2021/03/21 11:11:57;;;;;;;34.10;11.12;;;;;;;0.16;65.54;98400.63;2207198;80;21728;-73
2021/03/21 11:14:59;;;;;;;39.75;14.80;;;;;;;0.05;64.94;98412.09;2189347;79;21284;-73
2021/03/21 11:18:01;;;;;;;32.90;12.78;;;;;;;0.01;65.97;98384.69;2183848;80;21287;-72
2021/03/21 11:21:04;;;;;;;37.55;14.07;;;;;;;-0.08;66.24;98372.42;2197466;80;21605;-72
2021/03/21 11:24:06;;;;;;;34.90;12.75;;;;;;;-0.08;66.55;98375.45;2199956;79;21727;-72
2021/03/21 11:27:08;;;;;;;31.25;10.32;;;;;;;0.05;66.77;98349.75;2203059;80;21295;-72
2021/03/21 11:30:10;;;;;;;32.60;11.80;;;;;;;0.02;65.88;98378.20;2195502;80;21292;-72
2021/03/21 11:33:12;;;;;;;42.23;15.00;;;;;;;-0.08;66.64;98364.69;2183090;80;21359;-73
2021/03/21 11:36:14;;;;;;;42.30;15.10;;;;;;;0.03;66.70;98360.98;2190304;80;21646;-72
2021/03/21 11:39:16;;;;;;;40.98;15.88;;;;;;;0.22;66.10;98358.80;2183329;80;21308;-73
2021/03/21 11:42:18;;;;;;;41.90;14.78;;;;;;;0.39;66.37;98360.90;2192530;80;21743;-73
2021/03/21 11:45:20;;;;;;;37.80;16.10;;;;;;;0.58;66.14;98362.09;2197045;80;21122;-73
2021/03/21 11:48:23;;;;;;;38.13;14.75;;;;;;;0.78;65.91;98358.95;2207687;80;21724;-73
2021/03/21 11:51:25;;;;;;;38.98;15.08;;;;;;;0.90;65.23;98342.25;2185914;80;21738;-73
2021/03/21 11:54:27;;;;;;;30.77;11.08;;;;;;;0.94;65.86;98345.60;2206035;80;21295;-73
2021/03/21 11:57:29;;;;;;;35.60;14.07;;;;;;;0.89;65.74;98350.05;2202799;80;21301;-72
2021/03/21 12:00:31;;;;;;;43.50;17.45;;;;;;;0.89;65.90;98341.00;2203209;80;21189;-73
2021/03/21 12:03:33;;;;;;;34.83;13.43;;;;;;;0.90;66.40;98340.95;2209696;79;21307;-72
2021/03/21 12:06:36;;;;;;;34.95;13.62;;;;;;;0.90;65.82;98324.63;2194124;80;21153;-72
2021/03/21 12:09:38;;;;;;;41.68;16.52;;;;;;;0.72;66.50;98333.32;2184746;79;21724;-73
2021/03/21 12:12:40;;;;;;;40.78;17.10;;;;;;;0.59;66.96;98329.38;2185730;80;21169;-73
2021/03/21 12:15:43;;;;;;;47.88;17.27;;;;;;;0.65;67.01;98324.06;2196107;80;21289;-73
2021/03/21 12:18:45;;;;;;;42.48;16.70;;;;;;;0.54;67.45;98317.91;2184522;80;21296;-73
2021/03/21 12:21:46;;;;;;;40.00;16.37;;;;;;;0.71;67.40;98316.59;2188100;80;21312;-73
2021/03/21 12:24:48;;;;;;;41.05;17.00;;;;;;;0.85;67.36;98307.53;2160954;81;21304;-73
2021/03/21 12:27:53;;;;;;;38.28;15.38;;;;;;;1.06;67.07;98303.05;2188634;80;21185;-73
2021/03/21 12:30:54;;;;;;;32.83;11.93;;;;;;;1.19;66.29;98299.19;2202241;80;21324;-73
2021/03/21 12:33:56;;;;;;;37.83;16.82;;;;;;;1.29;65.62;98298.45;2198529;79;21312;-73
2021/03/21 12:36:58;;;;;;;39.08;16.82;;;;;;;1.17;66.00;98287.61;2171009;80;21272;-73
2021/03/21 12:40:00;;;;;;;38.90;14.87;;;;;;;1.35;65.45;98283.61;2194550;80;21280;-73
2021/03/21 12:43:03;;;;;;;42.83;17.05;;;;;;;1.23;65.14;98281.41;2191699;80;21134;-72
2021/03/21 12:46:05;;;;;;;37.93;16.15;;;;;;;1.04;65.63;98281.16;2211299;80;21308;-72
2021/03/21 12:49:07;;;;;;;39.38;17.15;;;;;;;0.98;66.05;98274.44;2203312;80;21149;-72
2021/03/21 12:52:09;;;;;;;40.25;16.62;;;;;;;1.01;65.98;98280.80;2187586;80;21355;-73
2021/03/21 12:55:11;;;;;;;40.05;17.02;;;;;;;1.05;65.90;98277.69;2209201;79;21744;-72
2021/03/21 12:58:13;;;;;;;33.98;13.00;;;;;;;1.16;65.91;98262.66;2210279;80;21303;-72
2021/03/21 13:01:15;;;;;;;39.67;17.62;;;;;;;1.18;65.35;98245.85;2198346;80;21194;-72
2021/03/21 13:04:18;;;;;;;40.88;15.75;;;;;;;1.18;65.67;98249.27;2208302;80;21579;-73
2021/03/21 13:07:20;;;;;;;43.17;18.12;;;;;;;1.11;65.84;98263.73;2189175;81;21736;-73
2021/03/21 13:10:22;;;;;;;44.08;16.45;;;;;;;1.17;66.41;98243.69;2190070;80;21308;-72
2021/03/21 13:13:24;;;;;;;43.63;18.17;;;;;;;1.20;66.44;98243.59;2173223;80;21328;-73
2021/03/21 13:16:26;;;;;;;40.55;17.17;;;;;;;1.37;67.06;98220.25;2192615;79;21272;-72
2021/03/21 13:19:28;;;;;;;41.30;17.17;;;;;;;1.62;66.87;98242.67;2186324;80;21609;-72
2021/03/21 13:22:30;;;;;;;41.50;18.32;;;;;;;1.70;66.85;98245.86;2185473;80;21605;-72
2021/03/21 13:25:34;;;;;;;40.03;15.85;;;;;;;1.60;67.02;98242.73;2183015;80;21830;-73
2021/03/21 13:28:36;;;;;;;43.85;19.80;;;;;;;1.44;66.64;98238.95;2187287;80;21363;-72
2021/03/21 13:31:38;;;;;;;44.98;18.95;;;;;;;1.40;67.04;98240.81;2192721;80;21130;-72
2021/03/21 13:34:40;;;;;;;48.58;20.57;;;;;;;1.37;67.02;98231.88;2191392;80;21271;-72
2021/03/21 13:37:42;;;;;;;43.13;17.85;;;;;;;1.41;67.07;98226.14;2185175;80;21296;-72
2021/03/21 13:40:44;;;;;;;50.78;22.75;;;;;;;1.38;68.02;98225.36;2201159;79;21315;-73
2021/03/21 13:43:46;;;;;;;62.62;26.90;;;;;;;1.45;67.57;98223.86;2201739;80;21327;-73
2021/03/21 13:46:48;;;;;;;48.60;20.80;;;;;;;1.55;67.52;98217.47;2213582;80;21319;-73
2021/03/21 13:49:51;;;;;;;73.47;31.07;;;;;;;1.54;67.57;98209.34;2190489;80;21197;-73
2021/03/21 13:52:53;;;;;;;69.60;28.98;;;;;;;1.49;68.27;98215.94;2204504;79;21341;-72
2021/03/21 13:55:55;;;;;;;65.08;27.58;;;;;;;1.54;68.81;98210.64;2191876;80;21300;-73
2021/03/21 13:58:57;;;;;;;52.30;22.05;;;;;;;1.64;68.52;98211.14;2196242;80;21292;-73